Terminal Aerodrome Forecast
Issued by NWS Billings, MT

Home | Current Version | Previous Version | Graphics & Text | Print | Product List | Glossary On
Versions: 1 2 3 4 5 6 7 8 9 10 11 12 13 14 15 16 17 18 19 20 21 22 23 24 25 26 27 28 29 30 31 32 33 34 35 36 37 38 39 40 41 42 43
545
FTUS45 KBYZ 242321
TAFMLS
TAF
KMLS 242321Z 2500/2524 05011KT P6SM SCT025
     FM250200 04016G22KT P6SM VCSH BKN020
     FM252000 04011KT P6SM SCT020 BKN050=

USA.gov is the U.S. government's official web portal to all federal, state and local government web resources and services.